createdAt,value
2023-03-08T00:02:26.440Z,4.30
2023-03-08T00:04:56.048Z,4.30
2023-03-08T00:07:24.372Z,4.30
2023-03-08T00:09:52.474Z,4.20
2023-03-08T00:12:20.129Z,4.20
2023-03-08T00:14:47.126Z,4.20
2023-03-08T00:17:14.064Z,4.20
2023-03-08T00:19:40.789Z,4.20
2023-03-08T00:22:08.322Z,4.20
2023-03-08T00:24:35.286Z,4.20
2023-03-08T00:27:03.086Z,4.20
2023-03-08T00:29:31.741Z,4.20
2023-03-08T00:31:58.469Z,4.20
2023-03-08T00:34:25.203Z,4.20
2023-03-08T00:36:51.915Z,4.20
2023-03-08T00:39:18.811Z,4.20
2023-03-08T00:41:46.197Z,4.10
2023-03-08T00:44:13.613Z,4.10
2023-03-08T00:46:40.425Z,4.20
2023-03-08T00:49:08.177Z,4.20
2023-03-08T00:51:35.947Z,4.20
2023-03-08T00:54:03.033Z,4.10
2023-03-08T00:56:30.442Z,4.00
2023-03-08T00:58:57.504Z,4.00
2023-03-08T01:01:24.428Z,3.90
2023-03-08T01:03:51.168Z,3.90
2023-03-08T01:06:18.507Z,3.90
2023-03-08T01:08:46.612Z,3.90
2023-03-08T01:11:22.244Z,3.90
2023-03-08T01:13:51.244Z,3.80
2023-03-08T01:16:22.247Z,3.80
2023-03-08T01:18:49.340Z,3.80
2023-03-08T01:21:16.731Z,3.80
2023-03-08T01:23:43.502Z,3.90
2023-03-08T01:26:15.375Z,3.90
2023-03-08T01:28:42.768Z,3.80
2023-03-08T01:31:19.417Z,3.80
2023-03-08T01:33:48.237Z,3.90
2023-03-08T01:36:17.909Z,3.80
2023-03-08T01:38:45.483Z,3.80
2023-03-08T01:41:22.345Z,3.80
2023-03-08T01:43:49.527Z,3.80
2023-03-08T01:46:27.191Z,3.80
2023-03-08T01:49:12.740Z,3.80
2023-03-08T01:51:46.012Z,3.80
2023-03-08T01:54:15.858Z,3.80
2023-03-08T01:56:43.995Z,3.80
2023-03-08T01:59:11.895Z,3.80
2023-03-08T02:01:40.438Z,3.70
2023-03-08T02:04:08.149Z,3.70
2023-03-08T02:06:36.475Z,3.70
2023-03-08T02:09:05.229Z,3.80
2023-03-08T02:11:37.593Z,3.70
2023-03-08T02:14:04.714Z,3.70
2023-03-08T02:16:31.456Z,3.80
2023-03-08T02:19:01.501Z,3.70
2023-03-08T02:21:30.636Z,3.70
2023-03-08T02:24:05.126Z,3.70
2023-03-08T02:26:34.856Z,3.80
2023-03-08T02:29:02.033Z,3.90
2023-03-08T02:31:29.624Z,3.90
2023-03-08T02:33:56.323Z,3.80
2023-03-08T02:36:23.755Z,3.70
2023-03-08T02:38:51.258Z,3.70
2023-03-08T02:41:17.965Z,3.70
2023-03-08T02:43:44.841Z,3.70
2023-03-08T02:46:15.269Z,3.70
2023-03-08T02:48:42.363Z,3.70
2023-03-08T02:51:09.064Z,3.70
2023-03-08T02:53:35.957Z,3.70
2023-03-08T02:56:02.729Z,3.70
2023-03-08T02:58:29.409Z,3.70
2023-03-08T03:00:56.582Z,3.70
2023-03-08T03:03:24.649Z,3.70
2023-03-08T03:05:51.652Z,3.70
2023-03-08T03:08:18.532Z,3.80
2023-03-08T03:10:45.226Z,3.70
2023-03-08T03:13:12.324Z,3.70
2023-03-08T03:15:40.360Z,3.80
2023-03-08T03:18:07.274Z,3.80
2023-03-08T03:20:34.118Z,3.80
2023-03-08T03:23:00.817Z,3.80
2023-03-08T03:25:27.508Z,3.80
2023-03-08T03:27:55.423Z,3.90
2023-03-08T03:30:22.883Z,3.90
2023-03-08T03:32:49.764Z,3.90
2023-03-08T03:35:16.842Z,3.80
2023-03-08T03:37:44.360Z,3.80
2023-03-08T03:40:12.524Z,3.80
2023-03-08T03:42:39.593Z,3.80
2023-03-08T03:45:07.381Z,3.80
2023-03-08T03:47:34.037Z,3.80
2023-03-08T03:50:00.743Z,3.80
2023-03-08T03:52:28.141Z,3.80
2023-03-08T03:54:56.745Z,3.80
2023-03-08T03:57:24.005Z,3.80
2023-03-08T03:59:51.875Z,3.80
2023-03-08T04:02:18.580Z,3.80
2023-03-08T04:04:45.889Z,3.80
2023-03-08T04:07:13.665Z,3.70
2023-03-08T04:09:40.333Z,3.70
2023-03-08T04:12:07.541Z,3.70
2023-03-08T04:14:34.434Z,3.60
2023-03-08T04:17:01.285Z,3.70
2023-03-08T04:19:28.273Z,3.70
2023-03-08T04:21:55.157Z,3.70
2023-03-08T04:24:21.827Z,3.70
2023-03-08T04:26:48.640Z,3.70
2023-03-08T04:29:15.688Z,3.60
2023-03-08T04:31:42.577Z,3.70
2023-03-08T04:34:09.296Z,3.70
2023-03-08T04:36:37.028Z,3.70
2023-03-08T04:39:04.025Z,3.70
2023-03-08T04:41:30.715Z,3.60
2023-03-08T04:43:57.911Z,3.60
2023-03-08T04:46:26.979Z,3.60
2023-03-08T04:48:55.753Z,3.60
2023-03-08T04:51:26.477Z,3.60
2023-03-08T04:53:54.100Z,3.60
2023-03-08T04:56:22.094Z,3.50
2023-03-08T04:58:48.942Z,3.50
2023-03-08T05:01:23.175Z,3.50
2023-03-08T05:03:50.854Z,3.50
2023-03-08T05:06:17.885Z,3.40
2023-03-08T05:08:45.498Z,3.40
2023-03-08T05:11:18.892Z,3.40
2023-03-08T05:13:46.079Z,3.40
2023-03-08T05:16:12.878Z,3.40
2023-03-08T05:18:39.663Z,3.40
2023-03-08T05:21:13.512Z,3.30
2023-03-08T05:23:40.316Z,3.30
2023-03-08T05:26:10.049Z,3.30
2023-03-08T05:28:37.279Z,3.30
2023-03-08T05:31:07.069Z,3.30
2023-03-08T05:33:34.808Z,3.30
2023-03-08T05:36:01.810Z,3.20
2023-03-08T05:38:28.755Z,3.20
2023-03-08T05:40:55.653Z,3.20
2023-03-08T05:43:22.874Z,3.20
2023-03-08T05:45:57.621Z,3.20
2023-03-08T05:48:25.436Z,3.20
2023-03-08T05:50:53.563Z,3.20
2023-03-08T05:53:24.166Z,3.20
2023-03-08T05:55:51.181Z,3.20
2023-03-08T05:58:18.337Z,3.30
2023-03-08T06:00:45.927Z,3.30
2023-03-08T06:03:12.813Z,3.40
2023-03-08T06:05:40.847Z,3.50
2023-03-08T06:08:07.753Z,3.50
2023-03-08T06:10:35.195Z,3.50
2023-03-08T06:13:03.417Z,3.50
2023-03-08T06:15:30.678Z,3.60
2023-03-08T06:17:57.601Z,3.60
2023-03-08T06:20:24.401Z,3.50
2023-03-08T06:22:51.160Z,3.60
2023-03-08T06:25:19.308Z,3.60
2023-03-08T06:27:48.061Z,3.50
2023-03-08T06:30:15.641Z,3.50
2023-03-08T06:32:43.146Z,3.50
2023-03-08T06:35:11.755Z,3.50
2023-03-08T06:37:39.839Z,3.60
2023-03-08T06:40:09.093Z,3.70
2023-03-08T06:42:41.435Z,3.80
2023-03-08T06:45:10.154Z,3.90
2023-03-08T06:47:37.935Z,3.70
2023-03-08T06:50:05.250Z,3.80
2023-03-08T06:52:38.253Z,3.80
2023-03-08T06:55:07.158Z,3.90
2023-03-08T06:57:34.169Z,3.90
2023-03-08T07:00:01.791Z,3.90
2023-03-08T07:02:29.206Z,4.00
2023-03-08T07:04:56.614Z,3.90
2023-03-08T07:07:23.501Z,3.90
2023-03-08T07:09:51.793Z,3.90
2023-03-08T07:12:18.466Z,3.90
2023-03-08T07:14:45.629Z,3.90
2023-03-08T07:17:13.541Z,3.90
2023-03-08T07:19:40.236Z,4.00
2023-03-08T07:22:07.752Z,3.90
2023-03-08T07:24:36.235Z,3.90
2023-03-08T07:27:03.359Z,4.00
2023-03-08T07:29:30.043Z,3.90
2023-03-08T07:31:56.909Z,3.90
2023-03-08T07:34:23.867Z,4.00
2023-03-08T07:36:51.325Z,4.10
2023-03-08T07:39:18.846Z,4.00
2023-03-08T07:41:47.522Z,4.00
2023-03-08T07:44:14.394Z,4.10
2023-03-08T07:46:41.671Z,4.10
2023-03-08T07:49:11.768Z,4.00
2023-03-08T07:51:38.548Z,4.10
2023-03-08T07:54:06.098Z,4.10
2023-03-08T07:56:33.080Z,4.20
2023-03-08T07:58:59.848Z,4.20
2023-03-08T08:01:26.838Z,4.40
2023-03-08T08:03:53.688Z,4.40
2023-03-08T08:06:20.379Z,4.50
2023-03-08T08:08:47.252Z,4.40
2023-03-08T08:11:16.981Z,4.50
2023-03-08T08:13:44.011Z,4.50
2023-03-08T08:16:12.568Z,4.50
2023-03-08T08:18:39.557Z,4.60
2023-03-08T08:21:13.467Z,4.60
2023-03-08T08:23:41.424Z,4.60
2023-03-08T08:26:14.325Z,4.60
2023-03-08T08:28:42.028Z,4.70
2023-03-08T08:31:12.664Z,4.70
2023-03-08T08:33:39.374Z,4.70
2023-03-08T08:36:08.464Z,4.80
2023-03-08T08:38:35.548Z,4.80
2023-03-08T08:41:04.046Z,4.80
2023-03-08T08:43:32.623Z,4.90
2023-03-08T08:45:59.647Z,5.00
2023-03-08T08:48:26.769Z,4.90
2023-03-08T08:50:54.251Z,5.00
2023-03-08T08:53:21.721Z,5.10
2023-03-08T08:55:48.519Z,5.10
2023-03-08T08:58:16.453Z,5.20
2023-03-08T09:00:44.426Z,5.30
2023-03-08T09:03:11.532Z,5.30
2023-03-08T09:05:41.048Z,5.40
2023-03-08T09:08:08.371Z,5.30
2023-03-08T09:10:38.657Z,5.30
2023-03-08T09:13:06.245Z,5.30
2023-03-08T09:15:35.025Z,5.30
2023-03-08T09:18:02.486Z,5.30
2023-03-08T09:20:29.273Z,5.40
2023-03-08T09:22:56.558Z,5.40
2023-03-08T09:25:24.264Z,5.40
2023-03-08T09:27:52.051Z,5.40
2023-03-08T09:30:20.262Z,5.30
2023-03-08T09:32:47.056Z,5.30
2023-03-08T09:35:15.580Z,5.30
2023-03-08T09:37:44.050Z,5.30
2023-03-08T09:40:25.404Z,5.40
2023-03-08T09:42:54.791Z,5.30
2023-03-08T09:45:28.978Z,5.20
2023-03-08T09:48:06.899Z,5.10
2023-03-08T09:50:42.396Z,5.10
2023-03-08T09:53:24.629Z,5.00
2023-03-08T09:55:56.111Z,5.00
2023-03-08T09:58:42.364Z,5.00
2023-03-08T10:01:57.246Z,4.90
2023-03-08T10:04:43.256Z,4.90
2023-03-08T10:07:21.975Z,4.80
2023-03-08T10:09:59.421Z,4.90
2023-03-08T10:12:59.444Z,4.80
2023-03-08T10:15:27.209Z,4.70
2023-03-08T10:17:59.864Z,4.60
2023-03-08T10:20:33.205Z,4.60
2023-03-08T10:23:02.260Z,4.70
2023-03-08T10:25:34.736Z,4.60
2023-03-08T10:28:04.511Z,4.40
2023-03-08T10:30:42.604Z,4.40
2023-03-08T10:33:13.742Z,4.30
2023-03-08T10:35:52.789Z,4.40
2023-03-08T10:38:19.487Z,4.40
2023-03-08T10:40:46.925Z,4.40
2023-03-08T10:43:20.029Z,4.50
2023-03-08T10:45:58.896Z,4.50
2023-03-08T10:48:26.762Z,4.50
2023-03-08T10:51:04.522Z,4.50
2023-03-08T10:53:33.522Z,4.40
2023-03-08T10:56:01.449Z,4.40
2023-03-08T10:58:31.800Z,4.40
2023-03-08T11:01:05.820Z,4.50
2023-03-08T11:03:34.214Z,4.40
2023-03-08T11:06:12.413Z,4.40
2023-03-08T11:08:41.544Z,4.40
2023-03-08T11:11:13.273Z,4.30
2023-03-08T11:13:45.051Z,4.30
2023-03-08T11:16:35.296Z,4.20
2023-03-08T11:19:27.233Z,4.10
2023-03-08T11:22:02.675Z,4.20
2023-03-08T11:24:42.184Z,4.20
2023-03-08T11:27:30.509Z,4.10
2023-03-08T11:30:11.700Z,4.00
2023-03-08T11:32:39.901Z,4.10
2023-03-08T11:35:44.633Z,4.10
2023-03-08T11:38:32.146Z,4.10
2023-03-08T11:41:21.148Z,4.00
2023-03-08T11:44:03.197Z,3.90
2023-03-08T11:46:56.647Z,3.80
2023-03-08T11:49:39.911Z,3.80
2023-03-08T11:52:28.596Z,3.80
2023-03-08T11:55:05.942Z,3.70
2023-03-08T11:57:37.448Z,3.80
2023-03-08T12:00:13.633Z,3.80
2023-03-08T12:02:44.954Z,3.80
2023-03-08T12:05:29.159Z,3.80
2023-03-08T12:08:00.022Z,3.70
2023-03-08T12:10:49.880Z,3.70
2023-03-08T12:13:32.394Z,3.80
2023-03-08T12:16:26.461Z,3.80
2023-03-08T12:19:01.683Z,3.80
2023-03-08T12:21:38.801Z,3.80
2023-03-08T12:24:13.880Z,3.70
2023-03-08T12:26:44.328Z,3.80
2023-03-08T12:29:24.878Z,3.80
2023-03-08T12:31:52.292Z,3.80
2023-03-08T12:34:28.742Z,3.70
2023-03-08T12:36:55.932Z,3.70
2023-03-08T12:39:36.354Z,3.80
2023-03-08T12:42:12.216Z,3.70
2023-03-08T12:44:39.238Z,3.80
2023-03-08T12:47:12.173Z,3.70
2023-03-08T12:49:41.794Z,3.70
2023-03-08T12:52:17.967Z,3.80
2023-03-08T12:55:01.232Z,3.90
2023-03-08T12:57:30.968Z,3.90
2023-03-08T13:00:26.764Z,3.90
2023-03-08T13:03:29.113Z,3.90
2023-03-08T13:06:23.242Z,4.00
2023-03-08T13:09:15.749Z,4.00
2023-03-08T13:11:50.224Z,3.90
2023-03-08T13:14:42.088Z,4.10
2023-03-08T13:17:58.497Z,4.00
2023-03-08T13:20:41.756Z,3.90
2023-03-08T13:23:15.150Z,4.00
2023-03-08T13:25:51.740Z,4.10
2023-03-08T13:28:23.938Z,4.10
2023-03-08T13:30:52.198Z,4.10
2023-03-08T13:33:23.012Z,4.20
2023-03-08T13:36:00.624Z,4.30
2023-03-08T13:38:30.266Z,4.20
2023-03-08T13:40:58.252Z,4.20
2023-03-08T13:43:31.982Z,4.20
2023-03-08T13:46:00.674Z,4.20
2023-03-08T13:48:31.252Z,4.20
2023-03-08T13:50:59.109Z,4.20
2023-03-08T13:53:29.820Z,4.30
2023-03-08T13:55:58.785Z,4.30
2023-03-08T13:58:41.728Z,4.30
2023-03-08T14:01:18.713Z,4.30
2023-03-08T14:03:47.015Z,4.40
2023-03-08T14:06:33.736Z,4.40
2023-03-08T14:09:02.298Z,4.40
2023-03-08T14:11:39.827Z,4.40
2023-03-08T14:14:14.193Z,4.50
2023-03-08T14:16:44.339Z,4.60
2023-03-08T14:19:30.299Z,4.60
2023-03-08T14:22:02.065Z,4.60
2023-03-08T14:24:31.667Z,4.60
2023-03-08T14:27:03.432Z,4.70
2023-03-08T14:29:34.599Z,4.80
2023-03-08T14:32:10.553Z,4.80
2023-03-08T14:34:39.617Z,4.90
2023-03-08T14:37:15.846Z,5.00
2023-03-08T14:39:44.443Z,5.00
2023-03-08T14:42:36.275Z,4.90
2023-03-08T14:45:06.153Z,4.90
2023-03-08T14:47:34.439Z,5.00
2023-03-08T14:50:07.159Z,5.00
2023-03-08T14:52:45.751Z,5.00
2023-03-08T14:55:24.650Z,4.90
2023-03-08T14:57:53.816Z,5.00
2023-03-08T15:00:21.256Z,5.00
2023-03-08T15:02:48.089Z,5.10
2023-03-08T15:05:28.377Z,5.10
2023-03-08T15:07:57.218Z,5.20
2023-03-08T15:10:38.329Z,5.10
2023-03-08T15:13:08.109Z,5.10
2023-03-08T15:15:34.812Z,5.10
2023-03-08T15:18:01.531Z,5.10
2023-03-08T15:20:28.391Z,5.10
2023-03-08T15:22:57.199Z,5.20
2023-03-08T15:25:26.851Z,5.30
2023-03-08T15:27:53.698Z,5.30
2023-03-08T15:30:22.853Z,5.30
2023-03-08T15:32:49.888Z,5.50
2023-03-08T15:35:17.251Z,5.50
2023-03-08T15:37:44.709Z,5.50
2023-03-08T15:40:15.156Z,5.50
2023-03-08T15:42:42.218Z,5.50
2023-03-08T15:45:10.344Z,5.60
2023-03-08T15:47:37.346Z,5.60
2023-03-08T15:50:10.691Z,5.60
2023-03-08T15:52:37.364Z,5.70
2023-03-08T15:55:04.419Z,5.70
2023-03-08T15:57:31.159Z,5.70
2023-03-08T15:59:58.460Z,5.80
2023-03-08T16:02:25.162Z,5.80
2023-03-08T16:04:55.718Z,5.80
2023-03-08T16:07:22.482Z,5.90
2023-03-08T16:09:49.249Z,6.00
2023-03-08T16:12:16.060Z,6.00
2023-03-08T16:14:47.929Z,6.00
2023-03-08T16:17:16.823Z,6.10
2023-03-08T16:19:44.097Z,6.20
2023-03-08T16:22:11.200Z,6.20
2023-03-08T16:24:37.890Z,6.30
2023-03-08T16:27:04.900Z,6.30
2023-03-08T16:29:32.701Z,6.40
2023-03-08T16:32:01.184Z,6.40
2023-03-08T16:34:28.917Z,6.40
2023-03-08T16:36:56.398Z,6.50
2023-03-08T16:39:24.220Z,6.50
2023-03-08T16:41:51.079Z,6.50
2023-03-08T16:44:23.558Z,6.50
2023-03-08T16:46:50.696Z,6.50
2023-03-08T16:49:18.821Z,6.50
2023-03-08T16:51:46.039Z,6.50
2023-03-08T16:54:13.529Z,6.40
2023-03-08T16:56:43.642Z,6.40
2023-03-08T16:59:12.927Z,6.40
2023-03-08T17:01:39.979Z,6.40
2023-03-08T17:04:06.713Z,6.40
2023-03-08T17:06:33.559Z,6.40
2023-03-08T17:09:00.651Z,6.40
2023-03-08T17:11:29.909Z,6.40
2023-03-08T17:14:18.867Z,6.40
2023-03-08T17:16:45.609Z,6.40
2023-03-08T17:19:13.334Z,6.50
2023-03-08T17:21:40.274Z,6.50
2023-03-08T17:24:09.225Z,6.50
2023-03-08T17:26:41.727Z,6.60
2023-03-08T17:29:08.642Z,6.50
2023-03-08T17:31:35.355Z,6.60
2023-03-08T17:34:02.648Z,6.60
2023-03-08T17:36:29.606Z,6.60
2023-03-08T17:38:56.598Z,6.60
2023-03-08T17:41:23.619Z,6.40
2023-03-08T17:43:50.470Z,6.40
2023-03-08T17:46:25.119Z,6.40
2023-03-08T17:48:53.085Z,6.40
2023-03-08T17:51:24.137Z,6.50
2023-03-08T17:53:51.159Z,6.40
2023-03-08T17:56:21.401Z,6.40
2023-03-08T17:58:49.349Z,6.40
2023-03-08T18:01:18.570Z,6.40
2023-03-08T18:03:45.723Z,6.40
2023-03-08T18:06:23.358Z,6.40
2023-03-08T18:08:50.044Z,6.40
2023-03-08T18:11:16.715Z,6.40
2023-03-08T18:13:43.498Z,6.40
2023-03-08T18:16:10.314Z,6.40
2023-03-08T18:18:37.089Z,6.50
2023-03-08T18:21:13.068Z,6.50
2023-03-08T18:23:43.141Z,6.50
2023-03-08T18:26:14.236Z,6.50
2023-03-08T18:28:41.211Z,6.50
2023-03-08T18:31:14.626Z,6.50
2023-03-08T18:33:41.367Z,6.50
2023-03-08T18:36:08.306Z,6.60
2023-03-08T18:38:35.340Z,6.60
2023-03-08T18:41:16.405Z,6.60
2023-03-08T18:43:43.653Z,6.60
2023-03-08T18:46:12.339Z,6.70
2023-03-08T18:48:39.652Z,6.70
2023-03-08T18:51:06.543Z,6.70
2023-03-08T18:53:33.747Z,6.70
2023-03-08T18:56:01.922Z,6.80
2023-03-08T18:58:28.906Z,6.80
2023-03-08T19:00:58.839Z,6.90
2023-03-08T19:03:29.975Z,6.90
2023-03-08T19:05:56.842Z,6.90
2023-03-08T19:08:23.632Z,6.90
2023-03-08T19:10:50.341Z,7.00
2023-03-08T19:13:17.044Z,7.00
2023-03-08T19:15:43.741Z,7.00
2023-03-08T19:18:10.626Z,7.00
2023-03-08T19:20:38.713Z,7.00
2023-03-08T19:23:05.514Z,7.00
2023-03-08T19:25:59.575Z,7.00
2023-03-08T19:28:26.780Z,7.10
2023-03-08T19:30:53.498Z,7.10
2023-03-08T19:33:30.569Z,7.10
2023-03-08T19:35:57.918Z,7.10
2023-03-08T19:38:24.684Z,7.10
2023-03-08T19:40:51.414Z,7.10
2023-03-08T19:43:18.081Z,7.20
2023-03-08T19:45:49.101Z,7.20
2023-03-08T19:48:15.844Z,7.20
2023-03-08T19:50:46.498Z,7.20
2023-03-08T19:53:13.305Z,7.30
2023-03-08T19:55:51.378Z,7.30
2023-03-08T19:58:18.436Z,7.40
2023-03-08T20:00:45.748Z,7.40
2023-03-08T20:03:13.939Z,7.40
2023-03-08T20:05:45.381Z,7.40
2023-03-08T20:08:13.087Z,7.40
2023-03-08T20:10:39.963Z,7.50
2023-03-08T20:13:06.691Z,7.50
2023-03-08T20:15:33.556Z,7.50
2023-03-08T20:18:00.263Z,7.50
2023-03-08T20:20:27.034Z,7.50
2023-03-08T20:22:53.751Z,7.50
2023-03-08T20:25:20.439Z,7.50
2023-03-08T20:27:47.151Z,7.40
2023-03-08T20:30:14.610Z,7.40
2023-03-08T20:32:41.422Z,7.50
2023-03-08T20:35:11.774Z,7.50
2023-03-08T20:37:38.460Z,7.50
2023-03-08T20:40:06.557Z,7.60
2023-03-08T20:42:36.789Z,7.70
2023-03-08T20:45:04.804Z,7.70
2023-03-08T20:47:31.605Z,7.60
2023-03-08T20:49:58.374Z,7.70
2023-03-08T20:52:25.103Z,7.60
2023-03-08T20:54:51.762Z,7.60
2023-03-08T20:57:18.452Z,7.60
2023-03-08T20:59:45.109Z,7.60
2023-03-08T21:02:12.420Z,7.70
2023-03-08T21:04:39.458Z,7.70
2023-03-08T21:07:06.630Z,7.80
2023-03-08T21:09:33.972Z,7.70
2023-03-08T21:12:00.994Z,7.70
2023-03-08T21:14:28.986Z,7.70
2023-03-08T21:16:55.755Z,7.60
2023-03-08T21:19:23.879Z,7.60
2023-03-08T21:21:51.205Z,7.60
2023-03-08T21:24:19.568Z,7.70
2023-03-08T21:26:46.355Z,7.70
2023-03-08T21:29:15.631Z,7.70
2023-03-08T21:31:44.944Z,7.70
2023-03-08T21:34:12.750Z,7.70
2023-03-08T21:36:39.704Z,7.80
2023-03-08T21:39:07.876Z,7.90
2023-03-08T21:41:38.040Z,7.90
2023-03-08T21:44:09.256Z,7.90
2023-03-08T21:46:37.075Z,7.90
2023-03-08T21:49:04.295Z,8.00
2023-03-08T21:51:32.364Z,8.00
2023-03-08T21:53:59.547Z,8.00
2023-03-08T21:56:26.351Z,8.00
2023-03-08T21:58:53.019Z,8.00
2023-03-08T22:01:25.258Z,8.00
2023-03-08T22:03:52.658Z,8.10
2023-03-08T22:06:19.735Z,8.10
2023-03-08T22:08:46.735Z,8.10
2023-03-08T22:11:13.786Z,8.10
2023-03-08T22:13:41.268Z,8.10
2023-03-08T22:16:09.575Z,8.10
2023-03-08T22:18:36.633Z,8.10
2023-03-08T22:21:04.197Z,8.10
2023-03-08T22:23:32.005Z,8.10
2023-03-08T22:25:58.776Z,8.10
2023-03-08T22:28:25.555Z,8.10
2023-03-08T22:30:52.281Z,8.10
2023-03-08T22:33:19.008Z,8.10
2023-03-08T22:35:47.067Z,8.10
2023-03-08T22:38:14.433Z,8.10
2023-03-08T22:40:41.750Z,8.10
2023-03-08T22:43:11.744Z,8.10
2023-03-08T22:45:38.527Z,8.10
2023-03-08T22:48:06.818Z,8.10
2023-03-08T22:50:33.691Z,8.10
2023-03-08T22:53:00.504Z,8.10
2023-03-08T22:55:27.258Z,8.10
2023-03-08T22:57:54.010Z,8.10
2023-03-08T23:00:21.397Z,8.10
2023-03-08T23:02:48.212Z,8.10
2023-03-08T23:05:18.632Z,8.20
2023-03-08T23:07:45.484Z,8.40
2023-03-08T23:10:12.904Z,8.40
2023-03-08T23:12:39.636Z,8.30
2023-03-08T23:15:07.338Z,8.30
2023-03-08T23:17:34.413Z,8.30
2023-03-08T23:20:01.429Z,8.30
2023-03-08T23:22:28.122Z,8.30
2023-03-08T23:24:54.773Z,8.30
2023-03-08T23:27:21.528Z,8.30
2023-03-08T23:29:51.924Z,8.30
2023-03-08T23:32:19.229Z,8.30
2023-03-08T23:34:46.006Z,8.10
2023-03-08T23:37:12.732Z,8.10
2023-03-08T23:39:39.439Z,8.00
2023-03-08T23:42:06.460Z,8.00
2023-03-08T23:44:33.155Z,7.90
2023-03-08T23:46:59.911Z,7.90
2023-03-08T23:49:26.608Z,7.80
2023-03-08T23:51:53.306Z,7.80
2023-03-08T23:54:19.975Z,7.80
2023-03-08T23:56:46.645Z,7.80
2023-03-08T23:59:23.015Z,7.80
